Погода Николаево-Отрадноена неделю

Ростовская область, Россия

19 - 25 мая
  • 19мая
    Сегодня
    +13°
    +20°
    Небольшая облачность, возможен дождь с грозой
    ВремяПогодаТемператураВлажностьДавлениеВетер, м/сВероятность осадков
    00:00Небольшая облачность+14°C90 %760 мм1.6 м/с4 %
    03:00Практически безоблачно+14°C93 %760 мм1.2 м/с6 %
    06:00Практически безоблачно+14°C93 %760 мм1.0 м/с8 %
    09:00Ясно и безоблачно+17°C80 %761 мм1.1 м/с2 %
    12:00Облачно с прояснениями+19°C65 %760 мм1.5 м/с11 %
    15:00Небольшая облачность, возможен дождь с грозой+20°C65 %760 мм1.3 м/с30 %
    18:00Практически безоблачно+19°C60 %760 мм1.1 м/с9 %
    21:00Ясно и безоблачно+17°C72 %761 мм0.8 м/с2 %
  • 20мая
    Понедельник
    +14°
    +22°
    Ясно и безоблачно
    ВремяПогодаТемператураВлажностьДавлениеВетер, м/сВероятность осадков
    00:00Практически безоблачно+16°C89 %760 мм0.8 м/с2 %
    03:00Ясно и безоблачно+14°C95 %761 мм1.1 м/с2 %
    06:00Небольшая облачность+13°C94 %761 мм2.2 м/с2 %
    09:00Ясно и безоблачно+18°C79 %762 мм1.9 м/с2 %
    12:00Ясно и безоблачно+21°C60 %762 мм2.1 м/с10 %
    15:00Ясно и безоблачно+22°C51 %762 мм1.3 м/с6 %
    18:00Ясно и безоблачно+21°C48 %762 мм1.2 м/с2 %
    21:00Ясно и безоблачно+20°C56 %762 мм0.9 м/с2 %
  • 21мая
    Вторник
    +15°
    +25°
    Ясно и безоблачно
    ВремяПогодаТемператураВлажностьДавлениеВетер, м/сВероятность осадков
    00:00Ясно и безоблачно+18°C68 %763 мм1.6 м/с2 %
    03:00Ясно и безоблачно+17°C76 %763 мм1.1 м/с2 %
    06:00Ясно и безоблачно+15°C82 %764 мм2.0 м/с2 %
    09:00Ясно и безоблачно+20°C60 %764 мм2.0 м/с2 %
    12:00Практически безоблачно+24°C42 %764 мм2.7 м/с2 %
    15:00Ясно и безоблачно+24°C36 %763 мм2.0 м/с2 %
    18:00Ясно и безоблачно+23°C40 %763 мм1.8 м/с2 %
    21:00Ясно и безоблачно+20°C57 %763 мм1.8 м/с2 %
  • 22мая
    Среда
    +16°
    +25°
    Ясно и безоблачно
    ВремяПогодаТемператураВлажностьДавлениеВетер, м/сВероятность осадков
    00:00Ясно и безоблачно+18°C69 %763 мм2.1 м/с2 %
    03:00Ясно и безоблачно+17°C70 %762 мм1.9 м/с2 %
    06:00Ясно и безоблачно+16°C69 %762 мм2.9 м/с2 %
    09:00Ясно и безоблачно+20°C55 %762 мм3.2 м/с2 %
    12:00Ясно и безоблачно+25°C42 %762 мм3.8 м/с2 %
    15:00Ясно и безоблачно+25°C36 %761 мм2.6 м/с2 %
    18:00Ясно и безоблачно+23°C41 %760 мм2.2 м/с2 %
    21:00Ясно и безоблачно+20°C57 %761 мм2.0 м/с2 %
  • 23мая
    Четверг
    +15°
    +26°
    Ясно и безоблачно
    ВремяПогодаТемператураВлажностьДавлениеВетер, м/сВероятность осадков
    00:00Ясно и безоблачно+19°C65 %760 мм2.5 м/с2 %
    03:00Ясно и безоблачно+17°C72 %760 мм2.1 м/с2 %
    06:00Ясно и безоблачно+16°C69 %761 мм3.1 м/с2 %
    09:00Ясно и безоблачно+21°C52 %761 мм3.5 м/с2 %
    12:00Ясно и безоблачно+25°C44 %761 мм4.5 м/с2 %
    15:00Ясно и безоблачно+25°C39 %760 мм3.6 м/с2 %
    18:00Ясно и безоблачно+24°C44 %759 мм3.4 м/с2 %
    21:00Ясно и безоблачно+21°C58 %760 мм2.7 м/с3 %
Мы используем cookies
Соглашаюсь